createdAt,value
2023-10-26T00:01:41.433Z,40.83
2023-10-26T00:04:05.177Z,40.03
2023-10-26T00:06:28.800Z,37.72
2023-10-26T00:08:52.246Z,33.55
2023-10-26T00:11:17.260Z,36.15
2023-10-26T00:13:40.598Z,36.40
2023-10-26T00:16:04.507Z,36.25
2023-10-26T00:18:27.960Z,33.85
2023-10-26T00:20:51.614Z,35.47
2023-10-26T00:23:14.996Z,35.33
2023-10-26T00:25:38.822Z,32.60
2023-10-26T00:28:03.385Z,44.65
2023-10-26T00:30:26.969Z,35.90
2023-10-26T00:32:50.535Z,36.75
2023-10-26T00:35:13.812Z,55.75
2023-10-26T00:37:37.130Z,38.88
2023-10-26T00:40:00.879Z,33.40
2023-10-26T00:42:24.281Z,37.28
2023-10-26T00:44:50.814Z,35.17
2023-10-26T00:47:15.977Z,34.08
2023-10-26T00:49:41.824Z,37.08
2023-10-26T00:52:07.003Z,35.47
2023-10-26T00:54:30.688Z,37.05
2023-10-26T00:56:54.620Z,35.80
2023-10-26T00:59:18.813Z,34.72
2023-10-26T01:01:46.423Z,35.35
2023-10-26T01:04:09.632Z,36.03
2023-10-26T01:06:33.020Z,31.75
2023-10-26T01:08:56.758Z,30.33
2023-10-26T01:11:20.221Z,30.88
2023-10-26T01:13:44.377Z,32.70
2023-10-26T01:16:08.422Z,29.85
2023-10-26T01:18:33.243Z,31.70
2023-10-26T01:20:56.933Z,34.13
2023-10-26T01:23:21.773Z,33.08
2023-10-26T01:25:49.999Z,31.17
2023-10-26T01:28:13.238Z,28.35
2023-10-26T01:30:37.483Z,28.67
2023-10-26T01:33:00.791Z,31.10
2023-10-26T01:35:24.110Z,29.15
2023-10-26T01:37:47.777Z,30.73
2023-10-26T01:40:13.351Z,31.00
2023-10-26T01:42:36.801Z,35.97
2023-10-26T01:45:00.404Z,35.30
2023-10-26T01:47:23.894Z,30.30
2023-10-26T01:49:47.169Z,32.45
2023-10-26T01:52:10.954Z,34.40
2023-10-26T01:54:34.284Z,32.38
2023-10-26T01:57:00.445Z,37.00
2023-10-26T01:59:23.739Z,31.17
2023-10-26T02:01:47.164Z,32.00
2023-10-26T02:04:10.345Z,31.30
2023-10-26T02:06:34.169Z,33.15
2023-10-26T02:08:57.578Z,34.50
2023-10-26T02:11:21.184Z,30.40
2023-10-26T02:13:45.915Z,31.88
2023-10-26T02:16:09.736Z,34.17
2023-10-26T02:18:33.284Z,31.95
2023-10-26T02:20:57.125Z,32.15
2023-10-26T02:23:20.577Z,31.08
2023-10-26T02:25:44.383Z,33.78
2023-10-26T02:28:07.646Z,33.08
2023-10-26T02:30:32.514Z,29.85
2023-10-26T02:32:56.072Z,35.88
2023-10-26T02:35:21.851Z,34.97
2023-10-26T02:37:46.273Z,35.20
2023-10-26T02:40:11.225Z,30.77
2023-10-26T02:42:35.404Z,30.40
2023-10-26T02:44:59.713Z,32.40
2023-10-26T02:47:24.921Z,29.13
2023-10-26T02:49:48.212Z,32.53
2023-10-26T02:52:11.494Z,34.05
2023-10-26T02:54:34.690Z,33.25
2023-10-26T02:56:58.196Z,31.52
2023-10-26T02:59:21.551Z,28.92
2023-10-26T03:01:44.697Z,28.80
2023-10-26T03:04:09.933Z,26.77
2023-10-26T03:06:39.048Z,25.60
2023-10-26T03:09:02.596Z,29.40
2023-10-26T03:11:26.880Z,26.73
2023-10-26T03:13:50.785Z,26.80
2023-10-26T03:16:14.156Z,27.60
2023-10-26T03:18:38.578Z,30.02
2023-10-26T03:21:03.463Z,27.55
2023-10-26T03:23:26.966Z,27.52
2023-10-26T03:26:07.813Z,26.75
2023-10-26T03:28:37.914Z,29.92
2023-10-26T03:31:09.666Z,26.83
2023-10-26T03:33:46.541Z,26.83
2023-10-26T03:36:21.940Z,28.15
2023-10-26T03:39:00.132Z,27.73
2023-10-26T03:41:28.426Z,35.65
2023-10-26T03:44:02.161Z,28.08
2023-10-26T03:46:32.230Z,31.48
2023-10-26T03:49:04.428Z,28.35
2023-10-26T03:51:39.261Z,31.70
2023-10-26T03:54:17.635Z,31.15
2023-10-26T03:56:49.923Z,35.08
2023-10-26T03:59:22.115Z,31.85
2023-10-26T04:01:55.874Z,31.48
2023-10-26T04:04:29.497Z,27.65
2023-10-26T04:07:07.784Z,35.95
2023-10-26T04:09:37.948Z,32.00
2023-10-26T04:12:15.391Z,33.45
2023-10-26T04:14:53.118Z,32.33
2023-10-26T04:17:35.656Z,36.83
2023-10-26T04:20:09.410Z,39.17
2023-10-26T04:22:44.243Z,34.38
2023-10-26T04:25:50.236Z,33.35
2023-10-26T04:28:50.960Z,34.83
2023-10-26T04:31:27.498Z,33.67
2023-10-26T04:33:57.239Z,36.92
2023-10-26T04:36:23.250Z,35.42
2023-10-26T04:38:54.409Z,35.50
2023-10-26T04:41:28.840Z,37.05
2023-10-26T04:44:22.949Z,30.95
2023-10-26T04:46:53.278Z,33.80
2023-10-26T04:49:20.478Z,34.17
2023-10-26T04:52:02.260Z,32.92
2023-10-26T04:54:35.257Z,34.92
2023-10-26T04:57:02.676Z,35.15
2023-10-26T04:59:42.663Z,37.05
2023-10-26T05:02:06.816Z,36.03
2023-10-26T05:04:30.087Z,29.42
2023-10-26T05:06:54.192Z,36.63
2023-10-26T05:09:18.102Z,35.15
2023-10-26T05:11:43.526Z,35.85
2023-10-26T05:14:08.216Z,39.67
2023-10-26T05:16:31.492Z,38.60
2023-10-26T05:18:54.702Z,37.83
2023-10-26T05:21:18.411Z,34.00
2023-10-26T05:23:41.878Z,35.45
2023-10-26T05:26:05.701Z,34.17
2023-10-26T05:28:31.555Z,42.03
2023-10-26T05:30:54.875Z,37.13
2023-10-26T05:33:18.448Z,36.38
2023-10-26T05:35:41.991Z,32.20
2023-10-26T05:38:05.943Z,41.13
2023-10-26T05:40:29.182Z,40.92
2023-10-26T05:42:52.754Z,39.42
2023-10-26T05:45:17.588Z,38.25
2023-10-26T05:47:41.303Z,39.53
2023-10-26T05:50:06.334Z,55.17
2023-10-26T05:52:29.870Z,39.90
2023-10-26T05:54:56.498Z,41.17
2023-10-26T05:57:19.938Z,42.55
2023-10-26T05:59:43.242Z,43.17
2023-10-26T06:02:08.567Z,43.30
2023-10-26T06:04:33.633Z,41.42
2023-10-26T06:06:56.937Z,56.85
2023-10-26T06:09:19.438Z,41.22
2023-10-26T06:11:42.861Z,38.15
2023-10-26T06:14:06.500Z,39.45
2023-10-26T06:16:29.861Z,45.35
2023-10-26T06:18:54.962Z,46.70
2023-10-26T06:21:18.416Z,50.05
2023-10-26T06:23:41.694Z,42.55
2023-10-26T06:26:06.632Z,43.55
2023-10-26T06:28:30.973Z,46.40
2023-10-26T06:30:54.696Z,37.30
2023-10-26T06:33:18.349Z,38.45
2023-10-26T06:35:43.003Z,37.03
2023-10-26T06:38:06.532Z,32.92
2023-10-26T06:40:30.030Z,31.92
2023-10-26T06:42:53.731Z,33.67
2023-10-26T06:45:17.736Z,34.53
2023-10-26T06:47:41.890Z,37.45
2023-10-26T06:50:05.871Z,34.00
2023-10-26T06:52:31.093Z,37.70
2023-10-26T06:54:54.293Z,34.55
2023-10-26T06:57:17.873Z,40.05
2023-10-26T06:59:42.619Z,40.53
2023-10-26T07:02:10.751Z,38.47
2023-10-26T07:04:37.117Z,33.03
2023-10-26T07:07:01.955Z,31.60
2023-10-26T07:09:28.080Z,31.08
2023-10-26T07:11:53.917Z,30.05
2023-10-26T07:14:17.629Z,35.03
2023-10-26T07:16:41.287Z,30.42
2023-10-26T07:19:04.879Z,29.05
2023-10-26T07:21:28.852Z,32.17
2023-10-26T07:23:52.161Z,28.95
2023-10-26T07:26:20.126Z,33.30
2023-10-26T07:28:44.116Z,31.05
2023-10-26T07:31:08.049Z,30.75
2023-10-26T07:33:31.937Z,29.40
2023-10-26T07:35:57.719Z,31.60
2023-10-26T07:38:35.537Z,29.10
2023-10-26T07:41:02.908Z,29.70
2023-10-26T07:43:28.230Z,30.38
2023-10-26T07:46:04.248Z,30.50
2023-10-26T07:48:27.973Z,35.33
2023-10-26T07:50:52.213Z,26.60
2023-10-26T07:53:17.785Z,25.50
2023-10-26T07:55:41.264Z,26.15
2023-10-26T07:58:07.080Z,26.80
2023-10-26T08:00:32.903Z,24.73
2023-10-26T08:02:56.705Z,22.80
2023-10-26T08:05:20.285Z,23.65
2023-10-26T08:07:54.758Z,25.17
2023-10-26T08:10:41.495Z,26.75
2023-10-26T08:13:12.667Z,28.70
2023-10-26T08:16:06.182Z,32.55
2023-10-26T08:18:21.530Z,28.52
2023-10-26T08:20:51.055Z,26.38
2023-10-26T08:23:14.296Z,33.60
2023-10-26T08:25:38.993Z,28.52
2023-10-26T08:28:02.165Z,26.38
2023-10-26T08:30:26.218Z,29.80
2023-10-26T08:32:55.467Z,30.38
2023-10-26T08:35:19.911Z,33.08
2023-10-26T08:37:43.556Z,30.83
2023-10-26T08:40:13.518Z,28.45
2023-10-26T08:42:40.268Z,27.73
2023-10-26T08:45:05.079Z,31.92
2023-10-26T08:47:31.440Z,26.00
2023-10-26T08:50:15.385Z,27.05
2023-10-26T08:52:40.827Z,25.40
2023-10-26T08:55:04.173Z,27.30
2023-10-26T08:57:27.488Z,24.23
2023-10-26T08:59:51.138Z,27.70
2023-10-26T09:02:14.419Z,27.58
2023-10-26T09:04:38.175Z,25.45
2023-10-26T09:07:03.108Z,26.08
2023-10-26T09:09:26.276Z,24.17
2023-10-26T09:11:50.302Z,20.38
2023-10-26T09:14:18.325Z,20.92
2023-10-26T09:16:44.219Z,23.63
2023-10-26T09:19:07.577Z,19.25
2023-10-26T09:21:32.326Z,21.35
2023-10-26T09:23:57.152Z,18.40
2023-10-26T09:26:21.622Z,20.95
2023-10-26T09:28:53.150Z,21.20
2023-10-26T09:31:17.198Z,18.48
2023-10-26T09:33:42.029Z,22.25
2023-10-26T09:36:13.628Z,19.42
2023-10-26T09:38:37.981Z,18.83
2023-10-26T09:41:05.800Z,19.83
2023-10-26T09:43:29.754Z,15.38
2023-10-26T09:45:53.651Z,17.23
2023-10-26T09:48:18.522Z,17.75
2023-10-26T09:50:42.427Z,17.67
2023-10-26T09:53:07.365Z,16.33
2023-10-26T09:55:31.593Z,15.85
2023-10-26T09:58:12.113Z,16.65
2023-10-26T10:00:52.221Z,18.88
2023-10-26T10:03:40.497Z,19.83
2023-10-26T10:06:48.460Z,16.83
2023-10-26T10:09:19.086Z,17.50
2023-10-26T10:11:49.747Z,19.38
2023-10-26T10:18:45.522Z,17.70
2023-10-26T10:21:43.250Z,17.52
2023-10-26T10:24:26.547Z,17.17
2023-10-26T10:27:22.961Z,15.90
2023-10-26T10:29:55.090Z,19.13
2023-10-26T10:33:12.060Z,15.52
2023-10-26T10:36:14.468Z,14.48
2023-10-26T10:38:58.746Z,13.18
2023-10-26T10:41:27.985Z,10.40
2023-10-26T10:44:01.875Z,10.85
2023-10-26T10:47:05.558Z,8.32
2023-10-26T10:49:53.934Z,7.10
2023-10-26T10:52:54.895Z,5.70
2023-10-26T10:55:36.044Z,6.00
2023-10-26T10:58:36.195Z,2.35
2023-10-26T11:01:31.878Z,3.60
2023-10-26T11:04:26.556Z,3.80
2023-10-26T11:06:55.606Z,2.35
2023-10-26T11:09:42.199Z,2.45
2023-10-26T11:12:26.192Z,4.38
2023-10-26T11:15:49.849Z,2.92
2023-10-26T11:19:08.255Z,7.75
2023-10-26T11:22:19.731Z,3.38
2023-10-26T11:25:14.859Z,5.00
2023-10-26T11:27:59.162Z,4.53
2023-10-26T11:30:57.814Z,6.90
2023-10-26T11:33:52.300Z,4.43
2023-10-26T11:36:40.932Z,5.15
2023-10-26T11:39:46.360Z,6.13
2023-10-26T11:43:04.895Z,5.75
2023-10-26T11:46:23.765Z,5.85
2023-10-26T11:49:09.803Z,5.90
2023-10-26T11:52:00.299Z,6.47
2023-10-26T11:55:18.221Z,5.88
2023-10-26T11:58:24.253Z,7.55
2023-10-26T12:01:32.132Z,9.38
2023-10-26T12:04:52.112Z,8.25
2023-10-26T12:07:32.313Z,6.93
2023-10-26T12:10:43.063Z,7.68
2023-10-26T12:13:32.030Z,6.38
2023-10-26T12:16:24.085Z,8.48
2023-10-26T12:19:17.460Z,9.18
2023-10-26T12:21:58.696Z,8.27
2023-10-26T12:25:18.121Z,7.78
2023-10-26T12:28:34.961Z,10.05
2023-10-26T12:31:31.455Z,8.25
2023-10-26T12:34:32.770Z,7.90
2023-10-26T12:37:30.483Z,9.80
2023-10-26T12:40:15.918Z,9.80
2023-10-26T12:43:26.241Z,9.07
2023-10-26T12:46:21.487Z,8.70
2023-10-26T12:49:27.883Z,8.52
2023-10-26T13:02:00.698Z,11.00
2023-10-26T13:04:51.395Z,9.00
2023-10-26T13:07:51.428Z,9.15
2023-10-26T13:10:48.582Z,9.70
2023-10-26T13:14:02.562Z,9.10
2023-10-26T13:19:38.257Z,9.77
2023-10-26T13:22:03.413Z,10.90
2023-10-26T13:24:28.030Z,10.52
2023-10-26T13:26:51.388Z,11.98
2023-10-26T13:29:15.971Z,14.38
2023-10-26T13:31:39.461Z,12.02
2023-10-26T13:34:03.482Z,10.35
2023-10-26T13:36:27.496Z,10.30
2023-10-26T13:38:51.347Z,11.07
2023-10-26T13:41:14.760Z,10.57
2023-10-26T13:43:38.386Z,14.75
2023-10-26T13:46:07.358Z,14.35
2023-10-26T13:48:30.938Z,13.00
2023-10-26T13:50:57.735Z,13.52
2023-10-26T13:53:22.234Z,12.23
2023-10-26T13:55:45.620Z,12.43
2023-10-26T13:58:10.136Z,14.25
2023-10-26T14:00:34.094Z,13.20
2023-10-26T14:02:58.819Z,12.93
2023-10-26T14:05:30.495Z,11.82
2023-10-26T14:07:54.530Z,12.35
2023-10-26T14:10:18.740Z,14.30
2023-10-26T14:12:42.630Z,14.77
2023-10-26T14:15:08.409Z,14.70
2023-10-26T14:17:35.343Z,15.23
2023-10-26T14:20:00.370Z,14.68
2023-10-26T14:22:23.946Z,15.23
2023-10-26T14:24:48.600Z,14.52
2023-10-26T14:27:12.688Z,15.85
2023-10-26T14:29:36.352Z,13.18
2023-10-26T14:31:59.605Z,13.57
2023-10-26T14:34:23.709Z,13.02
2023-10-26T14:36:49.545Z,15.07
2023-10-26T14:39:13.515Z,14.40
2023-10-26T14:41:37.372Z,14.70
2023-10-26T14:44:00.813Z,15.35
2023-10-26T14:46:25.222Z,13.75
2023-10-26T14:48:50.285Z,15.57
2023-10-26T14:51:14.313Z,14.10
2023-10-26T14:53:39.584Z,17.95
2023-10-26T14:56:03.826Z,14.30
2023-10-26T14:58:27.494Z,12.90
2023-10-26T15:00:51.679Z,13.35
2023-10-26T15:03:15.456Z,14.98
2023-10-26T15:05:40.458Z,13.55
2023-10-26T15:08:05.674Z,12.80
2023-10-26T15:10:36.605Z,16.00
2023-10-26T15:13:01.640Z,13.52
2023-10-26T15:15:26.354Z,14.50
2023-10-26T15:17:50.683Z,13.95
2023-10-26T15:20:14.402Z,15.52
2023-10-26T15:22:38.420Z,13.25
2023-10-26T15:25:01.928Z,13.30
2023-10-26T15:27:26.869Z,14.57
2023-10-26T15:29:50.476Z,15.90
2023-10-26T15:32:18.827Z,14.60
2023-10-26T15:34:42.833Z,13.90
2023-10-26T15:37:06.600Z,14.93
2023-10-26T15:39:31.327Z,13.73
2023-10-26T15:41:55.603Z,13.00
2023-10-26T15:44:21.865Z,13.90
2023-10-26T15:46:45.604Z,13.73
2023-10-26T15:49:33.335Z,11.88
2023-10-26T15:51:52.871Z,11.25
2023-10-26T15:54:16.642Z,11.77
2023-10-26T15:56:40.561Z,11.88
2023-10-26T15:59:04.830Z,14.88
2023-10-26T16:01:29.684Z,13.75
2023-10-26T16:03:53.720Z,11.65
2023-10-26T16:06:18.400Z,12.93
2023-10-26T16:08:43.160Z,14.95
2023-10-26T16:11:11.497Z,12.65
2023-10-26T16:13:35.835Z,12.93
2023-10-26T16:16:00.501Z,12.43
2023-10-26T16:18:25.673Z,12.10
2023-10-26T16:20:49.440Z,14.27
2023-10-26T16:23:13.293Z,11.80
2023-10-26T16:25:37.145Z,14.80
2023-10-26T16:28:00.668Z,13.18
2023-10-26T16:30:23.875Z,12.52
2023-10-26T16:32:47.438Z,12.50
2023-10-26T16:35:12.184Z,12.80
2023-10-26T16:37:36.500Z,12.07
2023-10-26T16:40:00.065Z,12.07
2023-10-26T16:42:23.724Z,12.00
2023-10-26T16:44:47.182Z,12.32
2023-10-26T16:47:10.396Z,14.30
2023-10-26T16:49:33.968Z,13.25
2023-10-26T16:52:00.653Z,13.32
2023-10-26T16:54:24.288Z,12.95
2023-10-26T16:56:47.903Z,10.95
2023-10-26T16:59:11.510Z,12.25
2023-10-26T17:01:34.734Z,13.80
2023-10-26T17:03:58.171Z,11.93
2023-10-26T17:06:21.382Z,12.23
2023-10-26T17:08:46.131Z,13.30
2023-10-26T17:11:11.113Z,13.88
2023-10-26T17:13:34.549Z,12.73
2023-10-26T17:15:57.802Z,16.40
2023-10-26T17:18:21.674Z,16.02
2023-10-26T17:20:44.941Z,13.57
2023-10-26T17:23:08.834Z,14.40
2023-10-26T17:25:36.636Z,16.67
2023-10-26T17:28:00.023Z,12.88
2023-10-26T17:30:23.253Z,14.60
2023-10-26T17:32:47.980Z,12.48
2023-10-26T17:35:12.202Z,13.90
2023-10-26T17:37:37.111Z,16.20
2023-10-26T17:40:00.713Z,13.73
2023-10-26T17:42:26.727Z,14.55
2023-10-26T17:44:50.549Z,15.23
2023-10-26T17:47:14.221Z,14.65
2023-10-26T17:49:37.954Z,15.80
2023-10-26T17:52:01.437Z,14.77
2023-10-26T17:54:24.723Z,12.20
2023-10-26T17:56:48.326Z,13.35
2023-10-26T17:59:13.030Z,14.00
2023-10-26T18:01:37.822Z,16.50
2023-10-26T18:04:01.266Z,14.63
2023-10-26T18:06:25.397Z,17.55
2023-10-26T18:08:50.142Z,13.63
2023-10-26T18:11:13.703Z,12.48
2023-10-26T18:13:37.393Z,15.60
2023-10-26T18:16:06.069Z,12.60
2023-10-26T18:18:30.133Z,12.68
2023-10-26T18:20:56.268Z,14.55
2023-10-26T18:23:19.701Z,15.82
2023-10-26T18:25:42.887Z,11.70
2023-10-26T18:28:06.788Z,12.68
2023-10-26T18:30:30.231Z,14.18
2023-10-26T18:32:57.111Z,15.85
2023-10-26T18:35:21.538Z,11.80
2023-10-26T18:37:45.188Z,12.30
2023-10-26T18:40:10.796Z,11.40
2023-10-26T18:42:34.175Z,11.07
2023-10-26T18:44:57.389Z,13.15
2023-10-26T18:47:20.640Z,12.15
2023-10-26T18:49:46.120Z,10.32
2023-10-26T18:52:09.826Z,12.75
2023-10-26T18:54:33.244Z,12.80
2023-10-26T18:56:57.042Z,13.77
2023-10-26T18:59:20.409Z,13.00
2023-10-26T19:01:45.146Z,14.38
2023-10-26T19:04:08.538Z,14.30
2023-10-26T19:06:33.403Z,10.90
2023-10-26T19:08:57.194Z,10.95
2023-10-26T19:11:20.473Z,10.88
2023-10-26T19:13:44.011Z,12.27
2023-10-26T19:16:08.511Z,12.50
2023-10-26T19:18:32.738Z,12.43
2023-10-26T19:20:56.346Z,16.75
2023-10-26T19:23:22.185Z,13.15
2023-10-26T19:25:45.581Z,13.13
2023-10-26T19:28:09.158Z,12.73
2023-10-26T19:30:34.107Z,15.13
2023-10-26T19:32:58.887Z,14.55
2023-10-26T19:35:22.825Z,18.13
2023-10-26T19:37:46.243Z,16.17
2023-10-26T19:40:12.362Z,11.90
2023-10-26T19:42:38.918Z,13.45
2023-10-26T19:45:02.815Z,17.02
2023-10-26T19:47:26.238Z,14.30
2023-10-26T19:49:49.719Z,15.55
2023-10-26T19:52:14.643Z,15.30
2023-10-26T19:54:38.634Z,18.10
2023-10-26T19:57:03.796Z,14.73
2023-10-26T19:59:27.407Z,15.05
2023-10-26T20:01:50.813Z,16.85
2023-10-26T20:04:15.023Z,20.42
2023-10-26T20:06:38.273Z,17.95
2023-10-26T20:09:01.500Z,15.55
2023-10-26T20:11:24.974Z,20.90
2023-10-26T20:13:50.317Z,18.13
2023-10-26T20:16:14.597Z,19.45
2023-10-26T20:18:42.971Z,17.45
2023-10-26T20:21:07.495Z,20.00
2023-10-26T20:23:30.983Z,17.15
2023-10-26T20:25:57.640Z,21.45
2023-10-26T20:28:20.979Z,19.17
2023-10-26T20:30:46.125Z,20.38
2023-10-26T20:33:09.459Z,17.42
2023-10-26T20:35:32.977Z,21.17
2023-10-26T20:37:56.481Z,15.85
2023-10-26T20:40:20.105Z,18.90
2023-10-26T20:42:45.133Z,19.85
2023-10-26T20:45:09.818Z,18.90
2023-10-26T20:47:35.136Z,20.05
2023-10-26T20:49:59.261Z,23.45
2023-10-26T20:52:23.583Z,19.65
2023-10-26T20:54:46.874Z,18.80
2023-10-26T20:57:10.116Z,19.42
2023-10-26T20:59:33.690Z,19.27
2023-10-26T21:01:56.957Z,20.90
2023-10-26T21:04:21.714Z,21.70
2023-10-26T21:06:47.727Z,21.10
2023-10-26T21:09:11.879Z,19.50
2023-10-26T21:11:35.283Z,20.42
2023-10-26T21:13:58.483Z,20.10
2023-10-26T21:16:22.746Z,22.35
2023-10-26T21:18:46.061Z,20.98
2023-10-26T21:21:11.406Z,22.70
2023-10-26T21:23:36.050Z,21.27
2023-10-26T21:25:59.293Z,23.45
2023-10-26T21:28:22.570Z,23.73
2023-10-26T21:30:47.056Z,24.67
2023-10-26T21:33:10.258Z,23.10
2023-10-26T21:35:37.667Z,24.77
2023-10-26T21:38:02.329Z,23.83
2023-10-26T21:40:26.018Z,21.77
2023-10-26T21:42:50.185Z,23.48
2023-10-26T21:45:13.544Z,27.83
2023-10-26T21:47:36.900Z,26.55
2023-10-26T21:50:00.495Z,23.55
2023-10-26T21:52:23.734Z,23.00
2023-10-26T21:54:48.647Z,23.33
2023-10-26T21:57:12.334Z,22.50
2023-10-26T21:59:35.584Z,25.75
2023-10-26T22:01:59.382Z,28.98
2023-10-26T22:04:23.046Z,25.33
2023-10-26T22:06:47.207Z,26.23
2023-10-26T22:09:11.037Z,25.80
2023-10-26T22:11:35.800Z,24.50
2023-10-26T22:13:59.268Z,22.25
2023-10-26T22:16:22.693Z,24.83
2023-10-26T22:18:46.174Z,28.98
2023-10-26T22:21:09.736Z,25.38
2023-10-26T22:23:33.291Z,21.30
2023-10-26T22:26:00.095Z,26.55
2023-10-26T22:28:24.934Z,25.55
2023-10-26T22:30:48.188Z,24.17
2023-10-26T22:33:12.245Z,24.15
2023-10-26T22:35:35.450Z,28.38
2023-10-26T22:37:58.867Z,27.95
2023-10-26T22:40:22.646Z,23.98
2023-10-26T22:42:46.311Z,23.80
2023-10-26T22:45:11.727Z,20.63
2023-10-26T22:47:35.434Z,24.77
2023-10-26T22:49:58.875Z,20.63
2023-10-26T22:52:22.776Z,20.50
2023-10-26T22:54:46.149Z,20.17
2023-10-26T22:57:10.163Z,18.30
2023-10-26T22:59:33.456Z,22.15
2023-10-26T23:01:58.423Z,19.33
2023-10-26T23:04:21.751Z,21.98
2023-10-26T23:06:45.014Z,18.60
2023-10-26T23:09:08.258Z,17.23
2023-10-26T23:11:31.919Z,16.88
2023-10-26T23:13:55.224Z,21.48
2023-10-26T23:16:19.507Z,22.65
2023-10-26T23:18:44.917Z,18.58
2023-10-26T23:21:08.156Z,18.35
2023-10-26T23:23:31.432Z,23.83
2023-10-26T23:25:55.016Z,20.33
2023-10-26T23:28:18.389Z,15.88
2023-10-26T23:30:41.638Z,18.77
2023-10-26T23:33:05.398Z,16.88
2023-10-26T23:35:32.146Z,16.20
2023-10-26T23:37:55.486Z,17.10
2023-10-26T23:40:20.442Z,18.17
2023-10-26T23:42:44.105Z,20.40
2023-10-26T23:45:08.806Z,20.08
2023-10-26T23:47:32.198Z,17.05
2023-10-26T23:49:56.804Z,17.73
2023-10-26T23:52:21.780Z,20.48
2023-10-26T23:54:45.478Z,18.92
2023-10-26T23:57:08.936Z,19.13
2023-10-26T23:59:32.162Z,20.13
